International Virtual Aviation Organisation

Eastern Europe and Northern Asia MCD

 
UASP 131800Z VRB01MPS CAVOK 01/M05 Q1037 NOSIG RMK QFE767/1022
QNH:(hPa/inHg/mmHg)1037 / 30.62 / 778
QFE:(hPa/inHg/mmHg)1022 / 30.17 / 766
Temperature1
Dew Point-5
Visibility> 10000
WeatherCAVOK
Cloud Cover
Transition Height10000 m./33300 ft.
Transition LevelFL340
SQUAWK